createdAt,value
2016-03-23T00:03:10.287Z,1003.85
2016-03-23T00:06:22.231Z,1003.73
2016-03-23T00:09:33.992Z,1003.83
2016-03-23T00:12:49.828Z,1003.75
2016-03-23T00:15:52.836Z,1003.81
2016-03-23T00:19:04.720Z,1003.77
2016-03-23T00:22:16.557Z,1003.75
2016-03-23T00:25:25.971Z,1003.69
2016-03-23T00:28:37.904Z,1003.75
2016-03-23T00:31:53.415Z,1003.65
2016-03-23T00:34:56.282Z,1003.57
2016-03-23T00:38:04.665Z,1003.65
2016-03-23T00:41:16.517Z,1003.61
2016-03-23T00:44:26.697Z,1003.63
2016-03-23T00:47:36.566Z,1003.55
2016-03-23T00:50:52.341Z,1003.37
2016-03-23T00:53:54.239Z,1003.43
2016-03-23T00:57:07.325Z,1003.43
2016-03-23T01:00:18.036Z,1003.47
2016-03-23T01:03:29.735Z,1003.39
2016-03-23T01:06:41.384Z,1003.39
2016-03-23T01:09:53.484Z,1003.37
2016-03-23T01:13:05.056Z,1003.37
2016-03-23T01:16:13.001Z,1003.32
2016-03-23T01:19:24.775Z,1003.19
2016-03-23T01:22:34.161Z,1003.19
2016-03-23T01:25:46.763Z,1003.25
2016-03-23T01:28:53.755Z,1003.23
2016-03-23T01:31:56.419Z,1003.3
2016-03-23T01:35:07.131Z,1003.23
2016-03-23T01:38:15.748Z,1003.15
2016-03-23T01:41:27.771Z,1003.13
2016-03-23T01:44:35.923Z,1003.17
2016-03-23T01:47:47.947Z,1003.19
2016-03-23T01:50:54.830Z,1003.13
2016-03-23T01:53:57.681Z,1002.99
2016-03-23T01:57:07.064Z,1003.07
2016-03-23T02:00:19.042Z,1003.09
2016-03-23T02:03:29.019Z,1003.05
2016-03-23T02:06:40.608Z,1002.93
2016-03-23T02:09:52.292Z,1002.99
2016-03-23T02:13:01.879Z,1002.93
2016-03-23T02:16:13.527Z,1002.99
2016-03-23T02:19:25.113Z,1002.97
2016-03-23T02:22:35.833Z,1003.01
2016-03-23T02:25:52.029Z,1002.97
2016-03-23T02:28:53.958Z,1002.88
2016-03-23T02:32:06.858Z,1002.93
2016-03-23T02:35:17.521Z,1002.76
2016-03-23T02:38:28.404Z,1002.78
2016-03-23T02:41:40.118Z,1002.76
2016-03-23T02:44:55.798Z,1002.6
2016-03-23T02:47:58.666Z,1002.7
2016-03-23T02:51:10.580Z,1002.72
2016-03-23T02:54:20.509Z,1002.64
2016-03-23T02:57:32.287Z,1002.6
2016-03-23T03:00:48.122Z,1002.64
2016-03-23T03:03:55.177Z,1002.64
2016-03-23T03:06:58.295Z,1002.58
2016-03-23T03:10:10.288Z,1002.56
2016-03-23T03:13:21.560Z,1002.6
2016-03-23T03:16:32.151Z,1002.46
2016-03-23T03:19:41.720Z,1002.42
2016-03-23T03:22:53.587Z,1002.48
2016-03-23T03:26:03.377Z,1002.46
2016-03-23T03:29:15.370Z,1002.44
2016-03-23T03:32:27.253Z,1002.52
2016-03-23T03:35:39.123Z,1002.6
2016-03-23T03:38:53.085Z,1002.5
2016-03-23T03:41:55.952Z,1002.6
2016-03-23T03:45:06.570Z,1002.7
2016-03-23T03:48:18.313Z,1002.58
2016-03-23T03:51:30.258Z,1002.46
2016-03-23T03:54:42.113Z,1002.58
2016-03-23T03:57:53.918Z,1002.72
2016-03-23T04:01:03.973Z,1002.66
2016-03-23T04:04:13.762Z,1002.54
2016-03-23T04:07:25.754Z,1002.54
2016-03-23T04:10:34.030Z,1002.54
2016-03-23T04:13:49.711Z,1002.6
2016-03-23T04:16:52.641Z,1002.7
2016-03-23T04:20:04.507Z,1002.68
2016-03-23T04:23:16.312Z,1002.82
2016-03-23T04:26:27.570Z,1002.78
2016-03-23T04:29:38.300Z,1002.72
2016-03-23T04:32:54.089Z,1002.64
2016-03-23T04:35:56.956Z,1002.62
2016-03-23T04:39:08.778Z,1002.66
2016-03-23T04:42:20.567Z,1002.76
2016-03-23T04:45:30.309Z,1002.74
2016-03-23T04:48:42.117Z,1002.82
2016-03-23T04:51:54.390Z,1002.82
2016-03-23T04:55:04.149Z,1002.86
2016-03-23T04:58:16.001Z,1002.8
2016-03-23T05:01:28.009Z,1002.84
2016-03-23T05:04:36.566Z,1002.88
2016-03-23T05:07:49.184Z,1002.88
2016-03-23T05:10:56.098Z,1002.82
2016-03-23T05:13:58.949Z,1002.86
2016-03-23T05:17:10.757Z,1002.88
2016-03-23T05:20:22.375Z,1002.72
2016-03-23T05:23:32.570Z,1002.84
2016-03-23T05:26:46.820Z,1002.88
2016-03-23T05:29:53.573Z,1002.86
2016-03-23T05:32:56.471Z,1002.86
2016-03-23T05:36:08.322Z,1002.95
2016-03-23T05:39:20.235Z,1002.95
2016-03-23T05:42:31.930Z,1002.91
2016-03-23T05:45:40.379Z,1002.93
2016-03-23T05:48:56.246Z,1002.99
2016-03-23T05:51:59.082Z,1002.97
2016-03-23T05:55:10.465Z,1002.91
2016-03-23T05:58:22.271Z,1002.99
2016-03-23T06:01:33.107Z,1002.97
2016-03-23T06:04:48.961Z,1002.89
2016-03-23T06:07:55.676Z,1003.01
2016-03-23T06:10:58.466Z,1002.95
2016-03-23T06:14:09.068Z,1002.95
2016-03-23T06:17:20.997Z,1002.97
2016-03-23T06:20:29.990Z,1002.89
2016-03-23T06:23:41.313Z,1002.93
2016-03-23T06:26:54.806Z,1003.07
2016-03-23T06:29:57.751Z,1002.97
2016-03-23T06:33:07.588Z,1002.99
2016-03-23T06:36:17.815Z,1002.88
2016-03-23T06:39:27.119Z,1002.78
2016-03-23T06:42:37.083Z,1002.82
2016-03-23T06:45:50.326Z,1002.78
2016-03-23T06:48:53.114Z,1002.68
2016-03-23T06:52:04.935Z,1002.7
2016-03-23T06:55:15.959Z,1002.78
2016-03-23T06:58:26.670Z,1002.84
2016-03-23T07:01:38.306Z,1002.78
2016-03-23T07:04:51.018Z,1002.88
2016-03-23T07:07:53.712Z,1002.86
2016-03-23T07:11:02.252Z,1002.93
2016-03-23T07:14:13.760Z,1002.91
2016-03-23T07:17:25.721Z,1002.97
2016-03-23T07:20:37.669Z,1002.95
2016-03-23T07:23:53.522Z,1002.88
2016-03-23T07:26:56.623Z,1002.91
2016-03-23T07:30:08.663Z,1002.72
2016-03-23T07:33:20.530Z,1002.86
2016-03-23T07:36:32.085Z,1002.76
2016-03-23T07:39:42.595Z,1002.8
2016-03-23T07:42:54.462Z,1002.78
2016-03-23T07:46:06.440Z,1002.86
2016-03-23T07:49:18.276Z,1002.95
2016-03-23T07:52:29.409Z,1002.89
2016-03-23T07:55:41.060Z,1002.86
2016-03-23T07:58:52.834Z,1002.86
2016-03-23T08:02:04.796Z,1002.8
2016-03-23T08:05:14.772Z,1002.82
2016-03-23T08:08:26.437Z,1002.86
2016-03-23T08:11:36.415Z,1002.91
2016-03-23T08:14:51.127Z,1002.93
2016-03-23T08:17:54.151Z,1002.91
2016-03-23T08:21:06.050Z,1002.93
2016-03-23T08:24:16.339Z,1002.93
2016-03-23T08:27:28.300Z,1002.86
2016-03-23T08:30:40.217Z,1002.76
2016-03-23T08:33:53.866Z,1002.76
2016-03-23T08:36:56.796Z,1002.8
2016-03-23T08:40:07.273Z,1002.7
2016-03-23T08:43:20.577Z,1002.84
2016-03-23T08:46:29.367Z,1002.7
2016-03-23T08:49:39.581Z,1002.56
2016-03-23T08:52:52.589Z,1002.62
2016-03-23T08:55:55.706Z,1002.56
2016-03-23T08:59:07.636Z,1002.58
2016-03-23T09:02:19.348Z,1002.5
2016-03-23T09:05:31.558Z,1002.48
2016-03-23T09:08:47.741Z,1002.5
2016-03-23T09:11:54.859Z,1002.44
2016-03-23T09:14:58.132Z,1002.48
2016-03-23T09:18:08.046Z,1002.4
2016-03-23T09:21:18.258Z,1002.4
2016-03-23T09:24:27.188Z,1001.9
2016-03-23T09:27:38.495Z,1002.12
2016-03-23T09:30:54.738Z,1002.24
2016-03-23T09:33:58.247Z,1001.9
2016-03-23T09:37:09.144Z,1000.51
2016-03-23T09:40:21.840Z,1001.92
2016-03-23T09:43:33.957Z,1001.92
2016-03-23T09:46:49.875Z,1001.9
2016-03-23T09:49:53.226Z,1001.86
2016-03-23T09:53:02.297Z,1001.9
2016-03-23T09:56:14.493Z,1001.96
2016-03-23T09:59:23.017Z,1002.16
2016-03-23T10:02:35.211Z,1002.06
2016-03-23T10:05:51.519Z,1002.14
2016-03-23T10:08:54.856Z,1002.16
2016-03-23T10:12:03.270Z,1002.26
2016-03-23T10:15:15.356Z,1002.14
2016-03-23T10:18:24.692Z,1002.2
2016-03-23T10:21:34.498Z,1002.24
2016-03-23T10:24:50.399Z,1002.24
2016-03-23T10:27:53.453Z,1002.32
2016-03-23T10:31:03.727Z,1002.38
2016-03-23T10:34:14.985Z,1002.44
2016-03-23T10:37:24.665Z,1002.5
2016-03-23T10:40:34.736Z,1002.46
2016-03-23T10:43:50.184Z,1002.4
2016-03-23T10:46:53.161Z,1002.3
2016-03-23T10:50:04.512Z,1002.34
2016-03-23T10:53:15.848Z,1002.34
2016-03-23T10:56:27.764Z,1002.22
2016-03-23T10:59:37.445Z,1002.26
2016-03-23T11:02:53.366Z,1002.2
2016-03-23T11:05:56.529Z,1002.28
2016-03-23T11:09:06.507Z,1002.28
2016-03-23T11:12:18.608Z,1002.28
2016-03-23T11:15:30.615Z,1002.3
2016-03-23T11:18:40.018Z,1002.3
2016-03-23T11:21:54.510Z,1002.2
2016-03-23T11:24:57.611Z,1002.12
2016-03-23T11:28:07.433Z,1002.2
2016-03-23T11:31:19.347Z,1002.26
2016-03-23T11:34:31.449Z,1002.26
2016-03-23T11:37:47.475Z,1002.16
2016-03-23T11:40:54.623Z,1002.12
2016-03-23T11:43:57.850Z,1002.16
2016-03-23T11:47:09.749Z,1002.3
2016-03-23T11:50:21.742Z,1002.26
2016-03-23T11:53:33.562Z,1002.38
2016-03-23T11:56:49.417Z,1002.38
2016-03-23T11:59:56.472Z,1002.4
2016-03-23T12:02:59.417Z,1002.42
2016-03-23T12:06:11.331Z,1002.3
2016-03-23T12:09:23.293Z,1002.38
2016-03-23T12:12:35.238Z,1002.4
2016-03-23T12:15:49.202Z,1002.42
2016-03-23T12:18:56.148Z,1002.4
2016-03-23T12:21:59.171Z,1002.34
2016-03-23T12:25:08.226Z,1002.36
2016-03-23T12:28:16.422Z,1002.4
2016-03-23T12:31:27.258Z,1002.26
2016-03-23T12:34:37.625Z,1002.36
2016-03-23T12:37:53.417Z,1002.38
2016-03-23T12:40:56.582Z,1002.28
2016-03-23T12:44:08.543Z,1002.3
2016-03-23T12:47:20.613Z,1002.26
2016-03-23T12:50:32.699Z,1002.32
2016-03-23T12:53:48.351Z,1002.48
2016-03-23T12:56:55.468Z,1002.36
2016-03-23T12:59:58.492Z,1002.36
2016-03-23T13:03:09.266Z,1002.24
2016-03-23T13:06:21.164Z,1002.18
2016-03-23T13:09:29.642Z,1002.1
2016-03-23T13:12:41.465Z,1002.16
2016-03-23T13:15:53.473Z,1002.22
2016-03-23T13:19:05.513Z,1002.22
2016-03-23T13:22:17.568Z,1002.16
2016-03-23T13:25:29.793Z,1002.1
2016-03-23T13:28:41.867Z,1002.18
2016-03-23T13:31:53.734Z,1002.12
2016-03-23T13:35:03.570Z,1002.1
2016-03-23T13:38:15.735Z,1001.96
2016-03-23T13:41:25.181Z,1001.92
2016-03-23T13:44:36.720Z,1001.92
2016-03-23T13:47:52.918Z,1001.92
2016-03-23T13:50:56.098Z,1001.96
2016-03-23T13:54:08.371Z,1002.06
2016-03-23T13:57:19.739Z,1001.94
2016-03-23T14:00:30.232Z,1001.88
2016-03-23T14:03:42.367Z,1001.76
2016-03-23T14:06:54.938Z,1001.78
2016-03-23T14:09:58.086Z,1001.72
2016-03-23T14:13:07.923Z,1001.84
2016-03-23T14:16:19.884Z,1001.74
2016-03-23T14:19:31.971Z,1001.72
2016-03-23T14:22:47.706Z,1001.74
2016-03-23T14:25:54.747Z,1001.8
2016-03-23T14:28:58.070Z,1001.82
2016-03-23T14:32:10.135Z,1001.74
2016-03-23T14:35:19.510Z,1001.92
2016-03-23T14:38:28.654Z,1001.92
2016-03-23T14:41:37.393Z,1001.9
2016-03-23T14:44:52.715Z,1001.96
2016-03-23T14:47:55.973Z,1001.96
2016-03-23T14:51:05.606Z,1001.96
2016-03-23T14:54:15.177Z,1001.92
2016-03-23T14:57:27.262Z,1002
2016-03-23T15:00:39.099Z,1002.1
2016-03-23T15:03:53.391Z,1001.98
2016-03-23T15:06:56.461Z,1002.06
2016-03-23T15:10:05.641Z,1002.12
2016-03-23T15:13:17.696Z,1002.04
2016-03-23T15:16:29.033Z,1002.02
2016-03-23T15:19:40.321Z,1002.06
2016-03-23T15:22:56.426Z,1002.04
2016-03-23T15:25:59.606Z,1002
2016-03-23T15:29:09.708Z,1002.04
2016-03-23T15:32:21.435Z,1002.04
2016-03-23T15:35:30.349Z,1002.06
2016-03-23T15:38:41.497Z,1002.08
2016-03-23T15:41:56.916Z,1002.02
2016-03-23T15:45:00.110Z,1002.06
2016-03-23T15:48:12.618Z,1002.08
2016-03-23T15:51:22.767Z,1002.04
2016-03-23T15:54:34.697Z,1002.02
2016-03-23T15:57:50.536Z,1001.98
2016-03-23T16:00:53.720Z,1002.06
2016-03-23T16:04:05.884Z,1002.06
2016-03-23T16:07:17.877Z,1002.08
2016-03-23T16:10:30.041Z,1002.16
2016-03-23T16:13:40.408Z,1002.1
2016-03-23T16:16:56.325Z,1002.24
2016-03-23T16:19:59.271Z,1002.3
2016-03-23T16:23:11.169Z,1002.32
2016-03-23T16:26:23.006Z,1002.3
2016-03-23T16:29:35.107Z,1002.38
2016-03-23T16:32:50.821Z,1002.36
2016-03-23T16:35:54.048Z,1002.26
2016-03-23T16:39:03.556Z,1002.3
2016-03-23T16:42:15.533Z,1002.3
2016-03-23T16:45:25.197Z,1002.3
2016-03-23T16:48:35.972Z,1002.3
2016-03-23T16:51:51.654Z,1002.3
2016-03-23T16:54:54.803Z,1002.34
2016-03-23T16:58:06.873Z,1002.4
2016-03-23T17:01:18.974Z,1002.46
2016-03-23T17:04:31.029Z,1002.38
2016-03-23T17:07:40.180Z,1002.66
2016-03-23T17:10:56.065Z,1002.68
2016-03-23T17:13:59.167Z,1002.78
2016-03-23T17:17:08.863Z,1002.68
2016-03-23T17:20:20.824Z,1002.68
2016-03-23T17:23:32.769Z,1002.78
2016-03-23T17:26:48.405Z,1002.8
2016-03-23T17:29:55.381Z,1002.82
2016-03-23T17:32:58.437Z,1002.82
2016-03-23T17:36:08.008Z,1002.88
2016-03-23T17:39:19.453Z,1002.95
2016-03-23T17:42:30.368Z,1002.91
2016-03-23T17:45:39.891Z,1002.91
2016-03-23T17:48:55.918Z,1002.88
2016-03-23T17:51:59.020Z,1002.86
2016-03-23T17:55:10.996Z,1002.89
2016-03-23T17:58:20.911Z,1002.99
2016-03-23T18:01:31.637Z,1003.01
2016-03-23T18:04:43.442Z,1003.03
2016-03-23T18:07:55.498Z,1002.99
2016-03-23T18:11:07.508Z,1003.07
2016-03-23T18:14:19.298Z,1003.01
2016-03-23T18:17:31.305Z,1003.07
2016-03-23T18:20:40.829Z,1003.17
2016-03-23T18:23:56.482Z,1003.3
2016-03-23T18:26:59.598Z,1003.25
2016-03-23T18:30:11.684Z,1003.11
2016-03-23T18:33:27.865Z,1003.15
2016-03-23T18:36:35.559Z,1003.25
2016-03-23T18:39:51.255Z,1003.25
2016-03-23T18:42:54.325Z,1003.32
2016-03-23T18:46:06.321Z,1003.37
2016-03-23T18:49:16.861Z,1003.37
2016-03-23T18:52:27.057Z,1003.34
2016-03-23T18:55:36.424Z,1003.41
2016-03-23T18:58:52.198Z,1003.49
2016-03-23T19:01:55.362Z,1003.37
2016-03-23T19:05:06.748Z,1003.49
2016-03-23T19:08:18.912Z,1003.53
2016-03-23T19:11:30.701Z,1003.53
2016-03-23T19:14:42.694Z,1003.67
2016-03-23T19:17:56.327Z,1003.61
2016-03-23T19:20:59.256Z,1003.67
2016-03-23T19:24:11.157Z,1003.69
2016-03-23T19:27:23.150Z,1003.63
2016-03-23T19:30:34.626Z,1003.67
2016-03-23T19:33:50.495Z,1003.63
2016-03-23T19:36:57.550Z,1003.69
2016-03-23T19:40:00.604Z,1003.49
2016-03-23T19:43:12.522Z,1003.55
2016-03-23T19:46:24.577Z,1003.61
2016-03-23T19:49:36.085Z,1003.55
2016-03-23T19:52:48.452Z,1003.61
2016-03-23T19:55:55.444Z,1003.65
2016-03-23T19:58:58.499Z,1003.61
2016-03-23T20:02:10.214Z,1003.63
2016-03-23T20:05:21.315Z,1003.55
2016-03-23T20:08:33.214Z,1003.69
2016-03-23T20:11:43.331Z,1003.71
2016-03-23T20:14:54.817Z,1003.69
2016-03-23T20:18:06.641Z,1003.73
2016-03-23T20:21:18.183Z,1003.77
2016-03-23T20:24:29.927Z,1003.85
2016-03-23T20:27:41.856Z,1003.93
2016-03-23T20:30:54.707Z,1003.93
2016-03-23T20:33:57.825Z,1003.87
2016-03-23T20:37:09.551Z,1003.93
2016-03-23T20:40:20.110Z,1003.81
2016-03-23T20:43:33.742Z,1003.85
2016-03-23T20:46:49.563Z,1003.91
2016-03-23T20:49:56.508Z,1003.95
2016-03-23T20:52:59.360Z,1003.99
2016-03-23T20:56:14.278Z,1003.97
2016-03-23T20:59:20.661Z,1004.07
2016-03-23T21:02:30.138Z,1004.11
2016-03-23T21:05:39.755Z,1004.11
2016-03-23T21:08:54.205Z,1003.95
2016-03-23T21:11:57.058Z,1004.09
2016-03-23T21:15:08.908Z,1004.07
2016-03-23T21:18:20.389Z,1004.13
2016-03-23T21:21:32.210Z,1004.21
2016-03-23T21:24:44.202Z,1004.13
2016-03-23T21:27:55.835Z,1004.13
2016-03-23T21:31:07.187Z,1004.09
2016-03-23T21:34:19.198Z,1004.17
2016-03-23T21:37:31.142Z,1004.07
2016-03-23T21:40:43.182Z,1004.15
2016-03-23T21:43:57.237Z,1004.09
2016-03-23T21:47:00.277Z,1004.05
2016-03-23T21:50:11.191Z,1004.17
2016-03-23T21:53:21.435Z,1004.19
2016-03-23T21:56:31.506Z,1004.19
2016-03-23T21:59:43.748Z,1004.17
2016-03-23T22:02:55.615Z,1004.27
2016-03-23T22:06:05.812Z,1004.33
2016-03-23T22:09:17.791Z,1004.25
2016-03-23T22:12:29.674Z,1004.29
2016-03-23T22:15:39.916Z,1004.29
2016-03-23T22:18:55.783Z,1004.33
2016-03-23T22:21:57.386Z,1004.39
2016-03-23T22:25:10.457Z,1004.41
2016-03-23T22:28:22.468Z,1004.41
2016-03-23T22:31:34.491Z,1004.49
2016-03-23T22:34:50.265Z,1004.39
2016-03-23T22:37:57.351Z,1004.43
2016-03-23T22:41:00.187Z,1004.35
2016-03-23T22:44:11.726Z,1004.39
2016-03-23T22:47:23.784Z,1004.37
2016-03-23T22:50:35.839Z,1004.39
2016-03-23T22:53:43.894Z,1004.29
2016-03-23T22:56:57.793Z,1004.31
2016-03-23T23:00:00.769Z,1004.29
2016-03-23T23:03:09.215Z,1004.39
2016-03-23T23:06:21.257Z,1004.25
2016-03-23T23:09:30.452Z,1004.37
2016-03-23T23:12:41.398Z,1004.19
2016-03-23T23:15:58.250Z,1004.27
2016-03-23T23:19:01.070Z,1004.35
2016-03-23T23:22:10.658Z,1004.33
2016-03-23T23:25:19.308Z,1004.33
2016-03-23T23:28:30.860Z,1004.45
2016-03-23T23:31:42.077Z,1004.57
2016-03-23T23:34:54.844Z,1004.55
2016-03-23T23:37:57.645Z,1004.49
2016-03-23T23:41:09.527Z,1004.57
2016-03-23T23:44:18.739Z,1004.55
2016-03-23T23:47:30.825Z,1004.59
2016-03-23T23:50:39.176Z,1004.65
2016-03-23T23:53:52.232Z,1004.73
2016-03-23T23:56:55.208Z,1004.59
